sensor_id;sensor_type;location;lat;lon;timestamp;pressure;altitude;pressure_sealevel;temperature;humidity
53514;BME280;39768;54.148;12.174;2024-02-15T00:02:35;101364.81;;;9.79;80.31
53514;BME280;39768;54.148;12.174;2024-02-15T00:06:36;101359.28;;;9.57;79.58
53514;BME280;39768;54.148;12.174;2024-02-15T00:10:38;101361.28;;;9.77;78.31
53514;BME280;39768;54.148;12.174;2024-02-15T00:14:39;101357.88;;;9.72;78.58
53514;BME280;39768;54.148;12.174;2024-02-15T00:18:41;101364.09;;;9.74;77.16
53514;BME280;39768;54.148;12.174;2024-02-15T00:22:43;101361.63;;;10.14;74.80
53514;BME280;39768;54.148;12.174;2024-02-15T00:26:45;101358.34;;;9.59;76.22
53514;BME280;39768;54.148;12.174;2024-02-15T00:30:49;101354.59;;;9.87;77.40
53514;BME280;39768;54.148;12.174;2024-02-15T00:34:51;101354.94;;;9.29;79.82
53514;BME280;39768;54.148;12.174;2024-02-15T00:38:53;101363.84;;;10.03;74.95
53514;BME280;39768;54.148;12.174;2024-02-15T00:42:55;101356.75;;;9.54;75.38
53514;BME280;39768;54.148;12.174;2024-02-15T00:46:57;101359.66;;;9.23;81.29
53514;BME280;39768;54.148;12.174;2024-02-15T00:50:59;101364.78;;;9.04;81.94
53514;BME280;39768;54.148;12.174;2024-02-15T00:55:01;101367.88;;;9.43;79.45
53514;BME280;39768;54.148;12.174;2024-02-15T00:59:03;101363.66;;;9.61;80.02
53514;BME280;39768;54.148;12.174;2024-02-15T01:03:07;101364.53;;;9.85;75.67
53514;BME280;39768;54.148;12.174;2024-02-15T01:07:08;101361.03;;;9.59;78.46
53514;BME280;39768;54.148;12.174;2024-02-15T01:11:10;101364.34;;;9.41;79.08
53514;BME280;39768;54.148;12.174;2024-02-15T01:15:12;101359.63;;;9.24;78.02
53514;BME280;39768;54.148;12.174;2024-02-15T01:19:14;101363.47;;;9.16;81.99
53514;BME280;39768;54.148;12.174;2024-02-15T01:23:15;101368.47;;;8.75;83.10
53514;BME280;39768;54.148;12.174;2024-02-15T01:27:17;101361.81;;;9.12;81.36
53514;BME280;39768;54.148;12.174;2024-02-15T01:31:18;101362.22;;;8.47;84.38
53514;BME280;39768;54.148;12.174;2024-02-15T01:35:20;101360.41;;;8.47;85.83
53514;BME280;39768;54.148;12.174;2024-02-15T01:39:22;101365.06;;;9.46;80.68
53514;BME280;39768;54.148;12.174;2024-02-15T01:43:23;101350.59;;;8.74;84.43
53514;BME280;39768;54.148;12.174;2024-02-15T01:47:25;101344.94;;;9.33;80.38
53514;BME280;39768;54.148;12.174;2024-02-15T01:51:27;101345.34;;;8.96;80.19
53514;BME280;39768;54.148;12.174;2024-02-15T01:55:29;101335.56;;;9.70;77.71
53514;BME280;39768;54.148;12.174;2024-02-15T01:59:31;101330.84;;;9.26;78.88
53514;BME280;39768;54.148;12.174;2024-02-15T02:03:33;101331.06;;;9.45;78.96
53514;BME280;39768;54.148;12.174;2024-02-15T02:07:37;101331.94;;;9.46;77.12
53514;BME280;39768;54.148;12.174;2024-02-15T02:11:38;101332.75;;;9.73;74.86
53514;BME280;39768;54.148;12.174;2024-02-15T02:15:40;101330.56;;;9.59;77.90
53514;BME280;39768;54.148;12.174;2024-02-15T02:19:42;101335.16;;;9.80;75.53
53514;BME280;39768;54.148;12.174;2024-02-15T02:23:48;101331.69;;;9.04;80.29
53514;BME280;39768;54.148;12.174;2024-02-15T02:27:55;101332.88;;;9.45;78.56
53514;BME280;39768;54.148;12.174;2024-02-15T02:31:57;101329.41;;;9.89;75.67
53514;BME280;39768;54.148;12.174;2024-02-15T02:35:59;101326.28;;;9.28;80.97
53514;BME280;39768;54.148;12.174;2024-02-15T02:40:01;101324.66;;;9.73;77.30
53514;BME280;39768;54.148;12.174;2024-02-15T02:44:03;101332.56;;;9.04;79.15
53514;BME280;39768;54.148;12.174;2024-02-15T02:48:04;101328.34;;;8.71;85.38
53514;BME280;39768;54.148;12.174;2024-02-15T02:52:07;101327.28;;;8.48;88.33
53514;BME280;39768;54.148;12.174;2024-02-15T02:56:09;101333.41;;;9.79;78.43
53514;BME280;39768;54.148;12.174;2024-02-15T03:00:14;101328.91;;;10.01;75.48
53514;BME280;39768;54.148;12.174;2024-02-15T03:04:19;101336.25;;;9.98;75.17
53514;BME280;39768;54.148;12.174;2024-02-15T03:08:20;101332.09;;;10.34;71.95
53514;BME280;39768;54.148;12.174;2024-02-15T03:12:23;101336.25;;;9.98;73.81
53514;BME280;39768;54.148;12.174;2024-02-15T03:16:26;101330.81;;;9.76;75.19
53514;BME280;39768;54.148;12.174;2024-02-15T03:20:29;101336.50;;;9.92;74.90
53514;BME280;39768;54.148;12.174;2024-02-15T03:24:30;101343.34;;;9.52;76.49
53514;BME280;39768;54.148;12.174;2024-02-15T03:28:32;101334.91;;;9.86;75.03
53514;BME280;39768;54.148;12.174;2024-02-15T03:32:34;101351.06;;;10.31;72.50
53514;BME280;39768;54.148;12.174;2024-02-15T03:36:36;101338.63;;;9.59;73.86
53514;BME280;39768;54.148;12.174;2024-02-15T03:40:38;101342.44;;;9.77;75.43
53514;BME280;39768;54.148;12.174;2024-02-15T03:44:42;101346.34;;;10.15;74.20
53514;BME280;39768;54.148;12.174;2024-02-15T03:48:44;101350.94;;;10.58;70.12
53514;BME280;39768;54.148;12.174;2024-02-15T03:52:46;101348.34;;;9.86;75.51
53514;BME280;39768;54.148;12.174;2024-02-15T03:56:49;101346.78;;;9.81;77.60
53514;BME280;39768;54.148;12.174;2024-02-15T04:00:53;101349.94;;;9.92;75.15
53514;BME280;39768;54.148;12.174;2024-02-15T04:04:57;101346.16;;;9.24;82.97
53514;BME280;39768;54.148;12.174;2024-02-15T04:08:59;101339.31;;;9.65;76.67
53514;BME280;39768;54.148;12.174;2024-02-15T04:13:01;101349.59;;;9.78;75.41
53514;BME280;39768;54.148;12.174;2024-02-15T04:17:03;101345.25;;;9.74;75.18
53514;BME280;39768;54.148;12.174;2024-02-15T04:21:04;101341.91;;;10.14;73.03
53514;BME280;39768;54.148;12.174;2024-02-15T04:25:09;101345.38;;;9.71;74.51
53514;BME280;39768;54.148;12.174;2024-02-15T04:29:18;101353.03;;;10.05;73.33
53514;BME280;39768;54.148;12.174;2024-02-15T04:33:23;101352.03;;;9.60;76.87
53514;BME280;39768;54.148;12.174;2024-02-15T04:37:25;101363.22;;;9.96;72.77
53514;BME280;39768;54.148;12.174;2024-02-15T04:41:28;101359.75;;;9.20;79.81
53514;BME280;39768;54.148;12.174;2024-02-15T04:45:31;101369.31;;;9.78;76.81
53514;BME280;39768;54.148;12.174;2024-02-15T04:49:33;101367.44;;;9.80;75.66
53514;BME280;39768;54.148;12.174;2024-02-15T04:53:35;101367.09;;;9.15;80.95
53514;BME280;39768;54.148;12.174;2024-02-15T04:57:37;101358.59;;;9.77;77.89
53514;BME280;39768;54.148;12.174;2024-02-15T05:01:39;101366.66;;;9.27;78.31
53514;BME280;39768;54.148;12.174;2024-02-15T05:05:44;101363.69;;;9.84;78.41
53514;BME280;39768;54.148;12.174;2024-02-15T05:09:45;101360.34;;;9.28;79.39
53514;BME280;39768;54.148;12.174;2024-02-15T05:13:47;101364.91;;;9.51;80.24
53514;BME280;39768;54.148;12.174;2024-02-15T05:17:51;101360.16;;;9.57;79.89
53514;BME280;39768;54.148;12.174;2024-02-15T05:21:55;101366.00;;;9.70;78.30
53514;BME280;39768;54.148;12.174;2024-02-15T05:25:57;101362.41;;;9.94;77.23
53514;BME280;39768;54.148;12.174;2024-02-15T05:29:59;101366.16;;;10.35;73.84
53514;BME280;39768;54.148;12.174;2024-02-15T05:34:02;101369.47;;;9.97;74.51
53514;BME280;39768;54.148;12.174;2024-02-15T05:38:04;101353.97;;;9.80;76.10
53514;BME280;39768;54.148;12.174;2024-02-15T05:42:08;101357.47;;;9.57;76.68
53514;BME280;39768;54.148;12.174;2024-02-15T05:46:12;101363.00;;;9.79;73.87
53514;BME280;39768;54.148;12.174;2024-02-15T05:50:14;101356.78;;;9.52;80.50
53514;BME280;39768;54.148;12.174;2024-02-15T05:54:16;101356.91;;;9.24;78.90
53514;BME280;39768;54.148;12.174;2024-02-15T05:58:20;101361.38;;;10.20;74.01
53514;BME280;39768;54.148;12.174;2024-02-15T06:02:22;101367.25;;;10.30;71.91
53514;BME280;39768;54.148;12.174;2024-02-15T06:06:24;101361.75;;;10.33;70.94
53514;BME280;39768;54.148;12.174;2024-02-15T06:10:28;101362.75;;;9.85;75.03
53514;BME280;39768;54.148;12.174;2024-02-15T06:14:31;101368.41;;;10.24;72.52
53514;BME280;39768;54.148;12.174;2024-02-15T06:18:33;101365.38;;;10.32;72.78
53514;BME280;39768;54.148;12.174;2024-02-15T06:22:35;101368.47;;;9.51;79.41
53514;BME280;39768;54.148;12.174;2024-02-15T06:26:37;101374.78;;;9.75;77.08
53514;BME280;39768;54.148;12.174;2024-02-15T06:30:40;101374.97;;;9.94;77.03
53514;BME280;39768;54.148;12.174;2024-02-15T06:35:00;101383.94;;;10.40;73.29
53514;BME280;39768;54.148;12.174;2024-02-15T06:39:20;101391.19;;;9.18;80.55
53514;BME280;39768;54.148;12.174;2024-02-15T06:43:41;101393.97;;;10.36;75.21
53514;BME280;39768;54.148;12.174;2024-02-15T06:47:43;101386.59;;;10.41;73.50
53514;BME280;39768;54.148;12.174;2024-02-15T06:51:48;101394.47;;;10.46;74.35
53514;BME280;39768;54.148;12.174;2024-02-15T06:55:51;101384.00;;;10.38;74.22
53514;BME280;39768;54.148;12.174;2024-02-15T06:59:53;101387.31;;;10.68;72.73
53514;BME280;39768;54.148;12.174;2024-02-15T07:03:55;101391.81;;;10.22;75.38
53514;BME280;39768;54.148;12.174;2024-02-15T07:08:01;101396.59;;;10.37;72.82
53514;BME280;39768;54.148;12.174;2024-02-15T07:12:03;101396.28;;;10.45;73.83
53514;BME280;39768;54.148;12.174;2024-02-15T07:16:07;101396.72;;;10.34;75.59
53514;BME280;39768;54.148;12.174;2024-02-15T07:20:12;101398.84;;;10.03;76.09
53514;BME280;39768;54.148;12.174;2024-02-15T07:24:18;101405.22;;;10.24;75.86
53514;BME280;39768;54.148;12.174;2024-02-15T07:28:21;101400.03;;;10.41;75.68
53514;BME280;39768;54.148;12.174;2024-02-15T07:32:23;101400.38;;;9.37;82.54
53514;BME280;39768;54.148;12.174;2024-02-15T07:36:25;101407.16;;;9.47;80.95
53514;BME280;39768;54.148;12.174;2024-02-15T07:40:27;101405.84;;;10.07;78.12
53514;BME280;39768;54.148;12.174;2024-02-15T07:44:31;101410.00;;;10.16;75.81
53514;BME280;39768;54.148;12.174;2024-02-15T07:48:34;101415.31;;;10.41;75.13
53514;BME280;39768;54.148;12.174;2024-02-15T07:52:36;101414.59;;;10.14;77.55
53514;BME280;39768;54.148;12.174;2024-02-15T07:56:38;101412.28;;;10.03;79.84
53514;BME280;39768;54.148;12.174;2024-02-15T08:00:51;101417.19;;;10.84;74.99
53514;BME280;39768;54.148;12.174;2024-02-15T08:04:54;101417.78;;;10.90;72.18
53514;BME280;39768;54.148;12.174;2024-02-15T08:08:56;101421.59;;;10.86;72.56
53514;BME280;39768;54.148;12.174;2024-02-15T08:12:58;101413.53;;;10.63;76.59
53514;BME280;39768;54.148;12.174;2024-02-15T08:17:01;101422.50;;;10.63;76.46
53514;BME280;39768;54.148;12.174;2024-02-15T08:21:05;101426.19;;;11.04;74.93
53514;BME280;39768;54.148;12.174;2024-02-15T08:25:08;101417.06;;;10.65;77.96
53514;BME280;39768;54.148;12.174;2024-02-15T08:29:14;101418.84;;;11.08;74.05
53514;BME280;39768;54.148;12.174;2024-02-15T08:33:16;101406.16;;;11.32;72.42
53514;BME280;39768;54.148;12.174;2024-02-15T08:37:18;101414.38;;;10.65;76.76
53514;BME280;39768;54.148;12.174;2024-02-15T08:41:20;101417.28;;;10.59;80.83
53514;BME280;39768;54.148;12.174;2024-02-15T08:45:25;101424.41;;;11.03;78.13
53514;BME280;39768;54.148;12.174;2024-02-15T08:49:26;101422.53;;;10.40;80.92
53514;BME280;39768;54.148;12.174;2024-02-15T08:53:32;101419.31;;;10.76;80.44
53514;BME280;39768;54.148;12.174;2024-02-15T08:57:35;101421.94;;;10.77;81.21
53514;BME280;39768;54.148;12.174;2024-02-15T09:01:37;101418.16;;;10.59;82.97
53514;BME280;39768;54.148;12.174;2024-02-15T09:05:39;101427.03;;;11.27;78.75
53514;BME280;39768;54.148;12.174;2024-02-15T09:09:42;101424.38;;;10.61;81.29
53514;BME280;39768;54.148;12.174;2024-02-15T09:13:44;101431.50;;;11.28;80.25
53514;BME280;39768;54.148;12.174;2024-02-15T09:17:46;101424.19;;;10.66;83.79
53514;BME280;39768;54.148;12.174;2024-02-15T09:21:48;101427.59;;;10.71;82.30
53514;BME280;39768;54.148;12.174;2024-02-15T09:25:50;101432.75;;;11.61;77.55
53514;BME280;39768;54.148;12.174;2024-02-15T09:29:55;101437.38;;;11.37;79.72
53514;BME280;39768;54.148;12.174;2024-02-15T09:33:57;101430.28;;;10.93;82.16
53514;BME280;39768;54.148;12.174;2024-02-15T09:38:00;101431.56;;;11.04;82.13
53514;BME280;39768;54.148;12.174;2024-02-15T09:42:02;101425.53;;;11.41;79.34
53514;BME280;39768;54.148;12.174;2024-02-15T09:46:05;101427.69;;;11.12;78.84
53514;BME280;39768;54.148;12.174;2024-02-15T09:50:12;101424.31;;;11.49;77.96
53514;BME280;39768;54.148;12.174;2024-02-15T09:54:16;101430.84;;;11.63;77.35
53514;BME280;39768;54.148;12.174;2024-02-15T09:58:24;101431.31;;;11.73;75.81
53514;BME280;39768;54.148;12.174;2024-02-15T10:02:28;101431.03;;;11.79;77.67
53514;BME280;39768;54.148;12.174;2024-02-15T10:06:30;101426.47;;;10.55;84.91
53514;BME280;39768;54.148;12.174;2024-02-15T10:10:34;101430.13;;;12.19;75.88
53514;BME280;39768;54.148;12.174;2024-02-15T10:14:37;101420.50;;;11.32;80.94
53514;BME280;39768;54.148;12.174;2024-02-15T10:18:40;101427.03;;;11.27;84.46
53514;BME280;39768;54.148;12.174;2024-02-15T10:22:41;101426.97;;;11.28;81.60
53514;BME280;39768;54.148;12.174;2024-02-15T10:26:43;101420.81;;;11.47;82.05
53514;BME280;39768;54.148;12.174;2024-02-15T10:30:45;101432.47;;;11.67;79.18
53514;BME280;39768;54.148;12.174;2024-02-15T10:34:50;101426.59;;;11.58;80.38
53514;BME280;39768;54.148;12.174;2024-02-15T10:38:52;101428.44;;;11.77;81.54
53514;BME280;39768;54.148;12.174;2024-02-15T10:42:57;101424.91;;;12.52;75.96
53514;BME280;39768;54.148;12.174;2024-02-15T10:46:59;101427.56;;;11.96;78.14
53514;BME280;39768;54.148;12.174;2024-02-15T10:51:10;101427.06;;;11.88;78.94
53514;BME280;39768;54.148;12.174;2024-02-15T10:55:24;101424.91;;;11.55;80.74
53514;BME280;39768;54.148;12.174;2024-02-15T10:59:31;101419.94;;;11.46;80.99
53514;BME280;39768;54.148;12.174;2024-02-15T11:03:48;101421.47;;;11.52;82.89
53514;BME280;39768;54.148;12.174;2024-02-15T11:07:51;101409.63;;;11.14;81.42
53514;BME280;39768;54.148;12.174;2024-02-15T11:11:56;101418.84;;;11.50;82.68
53514;BME280;39768;54.148;12.174;2024-02-15T11:15:58;101421.75;;;11.66;79.92
53514;BME280;39768;54.148;12.174;2024-02-15T11:20:00;101420.06;;;10.57;86.20
53514;BME280;39768;54.148;12.174;2024-02-15T11:24:30;101424.44;;;10.82;85.05
53514;BME280;39768;54.148;12.174;2024-02-15T11:28:38;101415.13;;;11.32;82.32
53514;BME280;39768;54.148;12.174;2024-02-15T11:32:48;101418.84;;;11.50;80.80
53514;BME280;39768;54.148;12.174;2024-02-15T11:36:57;101404.97;;;10.75;84.80
53514;BME280;39768;54.148;12.174;2024-02-15T11:41:03;101417.97;;;11.50;82.38
53514;BME280;39768;54.148;12.174;2024-02-15T11:45:09;101413.31;;;11.53;81.10
53514;BME280;39768;54.148;12.174;2024-02-15T11:49:15;101406.00;;;11.35;83.16
53514;BME280;39768;54.148;12.174;2024-02-15T11:53:20;101409.28;;;10.79;83.43
53514;BME280;39768;54.148;12.174;2024-02-15T11:57:22;101420.16;;;11.81;79.13
53514;BME280;39768;54.148;12.174;2024-02-15T12:01:39;101417.72;;;11.56;78.91
53514;BME280;39768;54.148;12.174;2024-02-15T12:06:02;101424.78;;;11.58;76.78
53514;BME280;39768;54.148;12.174;2024-02-15T12:10:22;101416.50;;;12.02;75.14
53514;BME280;39768;54.148;12.174;2024-02-15T12:14:43;101404.97;;;11.98;74.85
53514;BME280;39768;54.148;12.174;2024-02-15T12:19:04;101407.59;;;12.00;72.66
53514;BME280;39768;54.148;12.174;2024-02-15T12:23:06;101409.03;;;12.46;71.85
53514;BME280;39768;54.148;12.174;2024-02-15T12:27:09;101401.41;;;12.54;71.21
53514;BME280;39768;54.148;12.174;2024-02-15T12:31:11;101387.47;;;12.63;71.54
53514;BME280;39768;54.148;12.174;2024-02-15T12:35:16;101396.03;;;12.90;67.25
53514;BME280;39768;54.148;12.174;2024-02-15T12:39:25;101401.97;;;12.97;67.26
53514;BME280;39768;54.148;12.174;2024-02-15T12:43:28;101390.59;;;12.17;71.47
53514;BME280;39768;54.148;12.174;2024-02-15T12:47:30;101389.38;;;12.42;72.34
53514;BME280;39768;54.148;12.174;2024-02-15T12:51:32;101380.59;;;12.56;70.05
53514;BME280;39768;54.148;12.174;2024-02-15T12:55:39;101387.63;;;12.04;74.75
53514;BME280;39768;54.148;12.174;2024-02-15T12:59:43;101392.97;;;12.43;71.94
53514;BME280;39768;54.148;12.174;2024-02-15T13:03:45;101390.25;;;12.24;72.36
53514;BME280;39768;54.148;12.174;2024-02-15T13:07:48;101389.50;;;12.58;69.17
53514;BME280;39768;54.148;12.174;2024-02-15T13:11:50;101382.63;;;12.70;71.12
53514;BME280;39768;54.148;12.174;2024-02-15T13:15:52;101391.41;;;12.92;70.25
53514;BME280;39768;54.148;12.174;2024-02-15T13:19:55;101386.00;;;12.56;71.47
53514;BME280;39768;54.148;12.174;2024-02-15T13:24:04;101384.25;;;12.91;69.44
53514;BME280;39768;54.148;12.174;2024-02-15T13:28:06;101394.41;;;12.86;69.45
53514;BME280;39768;54.148;12.174;2024-02-15T13:32:11;101383.28;;;12.75;72.45
53514;BME280;39768;54.148;12.174;2024-02-15T13:36:13;101379.22;;;12.10;74.46
53514;BME280;39768;54.148;12.174;2024-02-15T13:40:18;101387.91;;;13.09;69.24
53514;BME280;39768;54.148;12.174;2024-02-15T13:44:22;101387.59;;;12.79;68.93
53514;BME280;39768;54.148;12.174;2024-02-15T13:48:29;101377.91;;;12.92;70.32
53514;BME280;39768;54.148;12.174;2024-02-15T13:52:33;101372.75;;;12.69;70.72
53514;BME280;39768;54.148;12.174;2024-02-15T13:56:36;101370.47;;;12.05;74.50
53514;BME280;39768;54.148;12.174;2024-02-15T14:00:38;101369.66;;;12.40;72.53
53514;BME280;39768;54.148;12.174;2024-02-15T14:04:45;101371.75;;;12.89;70.47
53514;BME280;39768;54.148;12.174;2024-02-15T14:08:47;101365.34;;;12.18;76.87
53514;BME280;39768;54.148;12.174;2024-02-15T14:12:50;101359.09;;;13.25;70.09
53514;BME280;39768;54.148;12.174;2024-02-15T14:16:54;101359.09;;;12.72;69.85
53514;BME280;39768;54.148;12.174;2024-02-15T14:20:55;101348.31;;;11.39;81.63
53514;BME280;39768;54.148;12.174;2024-02-15T14:24:59;101350.38;;;12.84;72.94
53514;BME280;39768;54.148;12.174;2024-02-15T14:29:01;101349.38;;;12.68;74.77
53514;BME280;39768;54.148;12.174;2024-02-15T14:33:05;101355.84;;;12.09;78.31
53514;BME280;39768;54.148;12.174;2024-02-15T14:37:10;101351.09;;;11.95;78.56
53514;BME280;39768;54.148;12.174;2024-02-15T14:41:12;101354.31;;;11.25;85.83
53514;BME280;39768;54.148;12.174;2024-02-15T14:45:14;101347.16;;;11.84;81.24
53514;BME280;39768;54.148;12.174;2024-02-15T14:49:16;101353.44;;;11.84;83.16
53514;BME280;39768;54.148;12.174;2024-02-15T14:53:19;101351.81;;;11.80;79.74
53514;BME280;39768;54.148;12.174;2024-02-15T14:57:21;101357.66;;;11.71;84.02
53514;BME280;39768;54.148;12.174;2024-02-15T15:01:26;101343.31;;;11.50;85.70
53514;BME280;39768;54.148;12.174;2024-02-15T15:05:30;101344.03;;;11.93;82.69
53514;BME280;39768;54.148;12.174;2024-02-15T15:09:50;101341.47;;;10.90;88.53
53514;BME280;39768;54.148;12.174;2024-02-15T15:14:10;101352.31;;;12.27;79.64
53514;BME280;39768;54.148;12.174;2024-02-15T15:18:12;101356.63;;;12.67;76.94
53514;BME280;39768;54.148;12.174;2024-02-15T15:22:15;101347.97;;;12.42;75.38
53514;BME280;39768;54.148;12.174;2024-02-15T15:26:20;101344.59;;;11.01;86.64
53514;BME280;39768;54.148;12.174;2024-02-15T15:30:22;101347.78;;;11.31;81.71
53514;BME280;39768;54.148;12.174;2024-02-15T15:34:24;101345.28;;;11.86;76.39
53514;BME280;39768;54.148;12.174;2024-02-15T15:38:27;101342.22;;;11.34;81.58
53514;BME280;39768;54.148;12.174;2024-02-15T15:42:29;101346.88;;;12.08;77.77
53514;BME280;39768;54.148;12.174;2024-02-15T15:46:32;101334.69;;;11.22;82.09
53514;BME280;39768;54.148;12.174;2024-02-15T15:50:36;101336.41;;;11.63;81.74
53514;BME280;39768;54.148;12.174;2024-02-15T15:54:41;101340.00;;;11.83;78.26
53514;BME280;39768;54.148;12.174;2024-02-15T15:58:45;101334.50;;;12.23;74.84
53514;BME280;39768;54.148;12.174;2024-02-15T16:02:50;101349.66;;;12.44;74.96
53514;BME280;39768;54.148;12.174;2024-02-15T16:06:58;101343.47;;;11.47;78.86
53514;BME280;39768;54.148;12.174;2024-02-15T16:11:00;101346.31;;;12.02;74.97
53514;BME280;39768;54.148;12.174;2024-02-15T16:15:02;101345.94;;;12.09;72.63
53514;BME280;39768;54.148;12.174;2024-02-15T16:19:07;101337.38;;;10.59;84.06
53514;BME280;39768;54.148;12.174;2024-02-15T16:23:09;101340.00;;;11.83;76.15
53514;BME280;39768;54.148;12.174;2024-02-15T16:27:11;101337.25;;;11.25;82.29
53514;BME280;39768;54.148;12.174;2024-02-15T16:31:13;101344.81;;;11.17;81.30
53514;BME280;39768;54.148;12.174;2024-02-15T16:35:15;101340.78;;;11.66;79.96
53514;BME280;39768;54.148;12.174;2024-02-15T16:39:21;101341.81;;;10.38;86.95
53514;BME280;39768;54.148;12.174;2024-02-15T16:43:25;101336.00;;;11.72;77.80
53514;BME280;39768;54.148;12.174;2024-02-15T16:47:29;101338.47;;;10.76;87.17
53514;BME280;39768;54.148;12.174;2024-02-15T16:51:32;101338.88;;;10.88;86.21
53514;BME280;39768;54.148;12.174;2024-02-15T16:55:36;101332.25;;;10.95;87.97
53514;BME280;39768;54.148;12.174;2024-02-15T16:59:38;101333.31;;;10.91;86.28
53514;BME280;39768;54.148;12.174;2024-02-15T17:03:40;101336.75;;;10.53;88.73
53514;BME280;39768;54.148;12.174;2024-02-15T17:07:42;101341.88;;;10.81;85.05
53514;BME280;39768;54.148;12.174;2024-02-15T17:11:45;101337.94;;;11.30;84.82
53514;BME280;39768;54.148;12.174;2024-02-15T17:15:48;101343.84;;;10.97;83.43
53514;BME280;39768;54.148;12.174;2024-02-15T17:19:50;101345.19;;;11.28;85.56
53514;BME280;39768;54.148;12.174;2024-02-15T17:23:53;101333.06;;;10.55;91.39
53514;BME280;39768;54.148;12.174;2024-02-15T17:27:55;101336.09;;;10.46;89.12
53514;BME280;39768;54.148;12.174;2024-02-15T17:31:59;101350.81;;;10.81;85.10
53514;BME280;39768;54.148;12.174;2024-02-15T17:36:01;101351.16;;;10.52;92.87
53514;BME280;39768;54.148;12.174;2024-02-15T17:40:05;101351.06;;;10.31;91.85
53514;BME280;39768;54.148;12.174;2024-02-15T17:44:11;101349.66;;;10.88;86.46
53514;BME280;39768;54.148;12.174;2024-02-15T17:48:13;101350.88;;;10.80;86.27
53514;BME280;39768;54.148;12.174;2024-02-15T17:52:20;101354.00;;;10.91;88.03
53514;BME280;39768;54.148;12.174;2024-02-15T17:56:23;101345.66;;;10.55;88.85
53514;BME280;39768;54.148;12.174;2024-02-15T18:00:25;101341.72;;;10.18;93.73
53514;BME280;39768;54.148;12.174;2024-02-15T18:04:36;101350.56;;;11.68;80.75
53514;BME280;39768;54.148;12.174;2024-02-15T18:08:38;101353.63;;;11.00;84.91
53514;BME280;39768;54.148;12.174;2024-02-15T18:12:42;101348.38;;;10.75;82.91
53514;BME280;39768;54.148;12.174;2024-02-15T18:16:44;101340.22;;;10.33;88.44
53514;BME280;39768;54.148;12.174;2024-02-15T18:20:52;101348.44;;;11.36;82.86
53514;BME280;39768;54.148;12.174;2024-02-15T18:24:54;101346.75;;;11.54;79.52
53514;BME280;39768;54.148;12.174;2024-02-15T18:28:56;101347.94;;;11.06;84.19
53514;BME280;39768;54.148;12.174;2024-02-15T18:33:02;101345.03;;;10.70;86.41
53514;BME280;39768;54.148;12.174;2024-02-15T18:37:05;101339.22;;;10.35;89.27
53514;BME280;39768;54.148;12.174;2024-02-15T18:41:08;101342.84;;;10.13;92.94
53514;BME280;39768;54.148;12.174;2024-02-15T18:45:10;101345.63;;;10.77;88.52
53514;BME280;39768;54.148;12.174;2024-02-15T18:49:13;101343.56;;;11.03;85.50
53514;BME280;39768;54.148;12.174;2024-02-15T18:53:32;101342.16;;;10.29;90.11
53514;BME280;39768;54.148;12.174;2024-02-15T18:57:35;101337.53;;;10.77;86.60
53514;BME280;39768;54.148;12.174;2024-02-15T19:01:36;101349.91;;;11.23;82.03
53514;BME280;39768;54.148;12.174;2024-02-15T19:05:38;101338.34;;;11.00;86.09
53514;BME280;39768;54.148;12.174;2024-02-15T19:09:48;101337.75;;;10.72;86.41
53514;BME280;39768;54.148;12.174;2024-02-15T19:13:51;101342.22;;;11.34;80.98
53514;BME280;39768;54.148;12.174;2024-02-15T19:17:53;101332.75;;;11.64;77.48
53514;BME280;39768;54.148;12.174;2024-02-15T19:21:56;101333.69;;;11.84;76.91
53514;BME280;39768;54.148;12.174;2024-02-15T19:25:58;101323.09;;;11.60;79.29
53514;BME280;39768;54.148;12.174;2024-02-15T19:30:00;101323.69;;;11.26;82.04
53514;BME280;39768;54.148;12.174;2024-02-15T19:34:03;101319.31;;;11.03;84.13
53514;BME280;39768;54.148;12.174;2024-02-15T19:38:05;101319.91;;;10.69;85.64
53514;BME280;39768;54.148;12.174;2024-02-15T19:42:09;101313.56;;;11.52;82.58
53514;BME280;39768;54.148;12.174;2024-02-15T19:46:11;101319.91;;;11.90;75.83
53514;BME280;39768;54.148;12.174;2024-02-15T19:50:13;101310.88;;;10.70;83.26
53514;BME280;39768;54.148;12.174;2024-02-15T19:54:17;101309.75;;;11.17;82.87
53514;BME280;39768;54.148;12.174;2024-02-15T19:58:19;101313.94;;;10.61;84.15
53514;BME280;39768;54.148;12.174;2024-02-15T20:02:21;101296.28;;;10.11;91.68
53514;BME280;39768;54.148;12.174;2024-02-15T20:06:24;101310.50;;;11.00;85.23
53514;BME280;39768;54.148;12.174;2024-02-15T20:10:32;101316.09;;;11.94;76.52
53514;BME280;39768;54.148;12.174;2024-02-15T20:14:34;101316.81;;;11.78;75.60
53514;BME280;39768;54.148;12.174;2024-02-15T20:18:38;101317.38;;;11.66;75.82
53514;BME280;39768;54.148;12.174;2024-02-15T20:22:41;101325.72;;;11.99;73.58
53514;BME280;39768;54.148;12.174;2024-02-15T20:26:44;101311.34;;;11.99;74.29
53514;BME280;39768;54.148;12.174;2024-02-15T20:30:51;101308.44;;;11.85;76.44
53514;BME280;39768;54.148;12.174;2024-02-15T20:34:58;101296.25;;;11.57;78.00
53514;BME280;39768;54.148;12.174;2024-02-15T20:39:02;101308.38;;;10.66;83.85
53514;BME280;39768;54.148;12.174;2024-02-15T20:43:05;101309.00;;;11.13;81.74
53514;BME280;39768;54.148;12.174;2024-02-15T20:47:07;101304.22;;;11.20;79.61
53514;BME280;39768;54.148;12.174;2024-02-15T20:51:13;101305.16;;;10.34;91.16
53514;BME280;39768;54.148;12.174;2024-02-15T20:55:15;101311.16;;;9.97;91.33
53514;BME280;39768;54.148;12.174;2024-02-15T20:59:18;101318.44;;;10.61;84.51
53514;BME280;39768;54.148;12.174;2024-02-15T21:03:20;101323.41;;;11.92;79.75